createdAt,value
2022-11-02T00:00:34.678Z,61.35
2022-11-02T00:03:01.422Z,61.52
2022-11-02T00:05:28.314Z,61.63
2022-11-02T00:07:55.877Z,61.59
2022-11-02T00:10:24.091Z,61.74
2022-11-02T00:12:51.471Z,61.73
2022-11-02T00:15:18.394Z,61.63
2022-11-02T00:17:50.241Z,61.75
2022-11-02T00:20:18.972Z,61.74
2022-11-02T00:22:48.220Z,61.84
2022-11-02T00:25:17.686Z,61.89
2022-11-02T00:27:44.410Z,61.89
2022-11-02T00:30:11.108Z,61.82
2022-11-02T00:32:37.685Z,61.96
2022-11-02T00:35:04.467Z,62.10
2022-11-02T00:37:31.022Z,62.02
2022-11-02T00:39:57.805Z,62.16
2022-11-02T00:42:24.349Z,62.13
2022-11-02T00:44:51.058Z,62.05
2022-11-02T00:47:19.405Z,62.24
2022-11-02T00:49:46.036Z,62.08
2022-11-02T00:52:13.187Z,62.12
2022-11-02T00:54:39.971Z,62.12
2022-11-02T00:57:06.774Z,62.08
2022-11-02T00:59:33.308Z,62.10
2022-11-02T01:02:00.103Z,62.05
2022-11-02T01:04:27.748Z,62.13
2022-11-02T01:06:54.345Z,61.91
2022-11-02T01:09:20.935Z,62.10
2022-11-02T01:14:28.244Z,62.15
2022-11-02T01:16:54.756Z,62.16
2022-11-02T01:19:21.261Z,62.22
2022-11-02T01:21:49.051Z,62.00
2022-11-02T01:24:15.641Z,61.88
2022-11-02T01:26:42.104Z,61.74
2022-11-02T01:29:10.174Z,62.18
2022-11-02T01:31:36.859Z,61.78
2022-11-02T01:34:03.532Z,61.81
2022-11-02T01:36:30.099Z,61.84
2022-11-02T01:38:57.107Z,62.07
2022-11-02T01:41:23.680Z,62.12
2022-11-02T01:43:54.446Z,62.28
2022-11-02T01:46:25.929Z,62.29
2022-11-02T01:49:21.754Z,62.10
2022-11-02T01:51:59.948Z,62.21
2022-11-02T01:54:31.035Z,62.24
2022-11-02T01:57:03.044Z,62.36
2022-11-02T01:59:35.326Z,62.24
2022-11-02T02:02:07.890Z,62.22
2022-11-02T02:04:35.216Z,62.10
2022-11-02T02:07:02.451Z,62.14
2022-11-02T02:09:29.938Z,62.26
2022-11-02T02:11:56.656Z,62.52
2022-11-02T02:14:23.383Z,62.67
2022-11-02T02:17:37.735Z,63.45
2022-11-02T02:20:10.127Z,63.11
2022-11-02T02:22:39.280Z,63.16
2022-11-02T02:25:23.932Z,63.65
2022-11-02T02:28:06.936Z,64.10
2022-11-02T02:30:50.261Z,64.35
2022-11-02T02:33:58.689Z,64.29
2022-11-02T02:36:50.783Z,64.32
2022-11-02T02:39:26.260Z,64.41
2022-11-02T02:42:07.784Z,64.29
2022-11-02T02:44:36.628Z,63.93
2022-11-02T02:47:10.560Z,64.11
2022-11-02T02:49:42.826Z,63.87
2022-11-02T02:52:10.001Z,63.43
2022-11-02T02:54:41.014Z,63.68
2022-11-02T02:57:15.170Z,63.95
2022-11-02T02:59:47.321Z,63.47
2022-11-02T03:02:23.379Z,63.70
2022-11-02T03:04:50.317Z,63.42
2022-11-02T03:07:29.677Z,64.07
2022-11-02T03:10:13.958Z,63.91
2022-11-02T03:13:02.016Z,63.82
2022-11-02T03:15:45.727Z,63.85
2022-11-02T03:18:34.350Z,63.93
2022-11-02T03:21:01.797Z,63.40
2022-11-02T03:23:37.758Z,64.08
2022-11-02T03:26:06.952Z,63.96
2022-11-02T03:28:48.936Z,64.39
2022-11-02T03:31:31.724Z,64.38
2022-11-02T03:34:09.205Z,64.53
2022-11-02T03:37:01.205Z,64.69
2022-11-02T03:39:40.062Z,64.98
2022-11-02T03:42:11.719Z,64.56
2022-11-02T03:44:40.197Z,64.40
2022-11-02T03:47:12.458Z,64.76
2022-11-02T03:49:42.948Z,65.00
2022-11-02T03:52:16.340Z,64.98
2022-11-02T03:55:07.392Z,65.16
2022-11-02T03:57:47.962Z,65.61
2022-11-02T04:00:21.110Z,64.99
2022-11-02T04:02:59.478Z,64.95
2022-11-02T04:05:31.227Z,64.71
2022-11-02T04:08:00.209Z,64.72
2022-11-02T04:10:28.191Z,64.66
2022-11-02T04:12:54.923Z,64.56
2022-11-02T04:15:21.706Z,64.58
2022-11-02T04:17:48.702Z,64.61
2022-11-02T04:20:16.746Z,65.29
2022-11-02T04:22:43.412Z,64.58
2022-11-02T04:25:15.534Z,64.46
2022-11-02T04:27:50.307Z,64.71
2022-11-02T04:30:20.933Z,64.40
2022-11-02T04:32:49.686Z,64.38
2022-11-02T04:35:17.691Z,64.08
2022-11-02T04:37:45.732Z,64.73
2022-11-02T04:40:12.724Z,63.82
2022-11-02T04:42:39.212Z,63.93
2022-11-02T04:45:06.219Z,63.77
2022-11-02T04:47:32.856Z,64.10
2022-11-02T04:49:59.329Z,63.81
2022-11-02T04:52:25.838Z,63.80
2022-11-02T04:54:53.295Z,63.81
2022-11-02T04:57:19.934Z,63.71
2022-11-02T04:59:47.126Z,63.68
2022-11-02T05:02:13.862Z,63.67
2022-11-02T05:04:42.270Z,63.64
2022-11-02T05:07:11.047Z,63.75
2022-11-02T05:09:38.450Z,63.73
2022-11-02T05:12:05.596Z,63.51
2022-11-02T05:14:33.412Z,63.49
2022-11-02T05:17:00.856Z,63.56
2022-11-02T05:19:28.051Z,63.45
2022-11-02T05:21:54.690Z,63.68
2022-11-02T05:24:22.259Z,63.53
2022-11-02T05:26:53.762Z,63.60
2022-11-02T05:29:23.599Z,63.71
2022-11-02T05:31:51.154Z,63.88
2022-11-02T05:34:17.705Z,63.78
2022-11-02T05:36:48.165Z,63.96
2022-11-02T05:39:15.589Z,63.90
2022-11-02T05:41:42.284Z,63.81
2022-11-02T05:44:09.588Z,63.87
2022-11-02T05:46:38.714Z,63.86
2022-11-02T05:49:05.216Z,63.99
2022-11-02T05:51:31.816Z,63.93
2022-11-02T05:53:58.305Z,63.94
2022-11-02T05:56:25.436Z,63.87
2022-11-02T05:58:54.566Z,63.96
2022-11-02T06:01:21.161Z,63.75
2022-11-02T06:03:53.184Z,63.75
2022-11-02T06:06:20.239Z,63.78
2022-11-02T06:08:46.732Z,63.89
2022-11-02T06:11:14.577Z,63.91
2022-11-02T06:13:41.926Z,64.19
2022-11-02T06:16:10.542Z,64.24
2022-11-02T06:18:38.321Z,64.23
2022-11-02T06:21:05.430Z,64.14
2022-11-02T06:23:31.997Z,64.15
2022-11-02T06:26:00.217Z,64.32
2022-11-02T06:28:28.407Z,64.29
2022-11-02T06:30:56.034Z,64.31
2022-11-02T06:33:23.332Z,64.10
2022-11-02T06:35:54.074Z,64.18
2022-11-02T06:38:21.152Z,63.97
2022-11-02T06:40:58.640Z,64.50
2022-11-02T06:43:25.486Z,64.06
2022-11-02T06:45:56.629Z,64.35
2022-11-02T06:48:26.498Z,64.14
2022-11-02T06:50:55.251Z,64.48
2022-11-02T06:53:21.817Z,64.54
2022-11-02T06:55:52.719Z,64.71
2022-11-02T06:58:19.467Z,64.38
2022-11-02T07:00:46.063Z,64.49
2022-11-02T07:03:12.648Z,64.37
2022-11-02T07:05:39.179Z,64.37
2022-11-02T07:08:06.293Z,64.23
2022-11-02T07:10:32.998Z,64.41
2022-11-02T07:12:59.575Z,64.30
2022-11-02T07:15:26.513Z,64.19
2022-11-02T07:17:53.681Z,64.09
2022-11-02T07:20:20.558Z,64.11
2022-11-02T07:23:01.717Z,64.46
2022-11-02T07:25:30.653Z,64.28
2022-11-02T07:27:58.013Z,64.16
2022-11-02T07:30:24.510Z,64.22
2022-11-02T07:32:51.211Z,64.27
2022-11-02T07:35:18.824Z,64.51
2022-11-02T07:38:04.984Z,64.90
2022-11-02T07:40:33.343Z,64.74
2022-11-02T07:43:00.365Z,64.71
2022-11-02T07:45:49.402Z,64.84
2022-11-02T07:48:15.995Z,64.91
2022-11-02T07:50:42.657Z,64.90
2022-11-02T07:53:09.664Z,64.97
2022-11-02T07:55:36.324Z,65.00
2022-11-02T07:58:05.311Z,65.12
2022-11-02T08:00:34.689Z,65.39
2022-11-02T08:03:02.546Z,65.53
2022-11-02T08:05:31.052Z,65.44
2022-11-02T08:08:05.092Z,65.67
2022-11-02T08:10:37.088Z,65.30
2022-11-02T08:13:05.967Z,65.14
2022-11-02T08:15:32.551Z,65.13
2022-11-02T08:18:13.198Z,64.65
2022-11-02T08:20:39.775Z,65.45
2022-11-02T08:23:06.859Z,65.64
2022-11-02T08:25:34.165Z,65.40
2022-11-02T08:28:01.762Z,65.27
2022-11-02T08:30:30.106Z,65.17
2022-11-02T08:33:03.168Z,63.93
2022-11-02T08:35:29.712Z,64.27
2022-11-02T08:37:57.348Z,63.48
2022-11-02T08:40:24.413Z,63.38
2022-11-02T08:43:05.736Z,62.11
2022-11-02T08:45:54.205Z,62.25
2022-11-02T08:48:21.091Z,62.16
2022-11-02T08:50:49.095Z,61.98
2022-11-02T08:53:15.616Z,62.39
2022-11-02T08:55:42.390Z,61.87
2022-11-02T08:58:09.149Z,62.13
2022-11-02T09:00:36.129Z,61.80
2022-11-02T09:03:07.939Z,61.36
2022-11-02T09:05:45.805Z,60.71
2022-11-02T09:08:18.483Z,61.08
2022-11-02T09:10:48.481Z,62.07
2022-11-02T09:13:19.275Z,61.74
2022-11-02T09:15:45.736Z,61.77
2022-11-02T09:18:12.272Z,61.44
2022-11-02T09:20:38.974Z,61.35
2022-11-02T09:23:07.692Z,61.05
2022-11-02T09:25:34.343Z,60.12
2022-11-02T09:28:00.884Z,59.61
2022-11-02T09:30:28.124Z,59.49
2022-11-02T09:33:02.937Z,57.31
2022-11-02T09:35:32.646Z,57.98
2022-11-02T09:37:59.358Z,57.79
2022-11-02T09:40:28.588Z,57.34
2022-11-02T09:43:01.626Z,56.68
2022-11-02T09:45:29.281Z,56.98
2022-11-02T09:48:24.992Z,55.26
2022-11-02T09:51:14.428Z,56.43
2022-11-02T09:53:52.660Z,56.12
2022-11-02T09:56:19.780Z,56.83
2022-11-02T09:58:53.382Z,55.94
2022-11-02T10:01:33.407Z,55.67
2022-11-02T10:04:02.835Z,55.44
2022-11-02T10:06:31.378Z,56.30
2022-11-02T10:09:14.887Z,55.30
2022-11-02T10:12:30.203Z,54.94
2022-11-02T10:15:26.992Z,54.85
2022-11-02T10:17:57.479Z,54.31
2022-11-02T10:20:41.582Z,54.33
2022-11-02T10:23:17.068Z,52.74
2022-11-02T10:25:44.482Z,54.79
2022-11-02T10:28:16.912Z,53.35
2022-11-02T10:30:44.764Z,54.51
2022-11-02T10:33:15.206Z,52.58
2022-11-02T10:36:19.450Z,52.62
2022-11-02T10:38:55.282Z,53.38
2022-11-02T10:41:42.708Z,52.44
2022-11-02T10:44:41.295Z,51.19
2022-11-02T10:47:17.857Z,49.81
2022-11-02T10:50:10.979Z,49.73
2022-11-02T10:52:41.856Z,49.94
2022-11-02T10:55:17.311Z,49.24
2022-11-02T10:57:43.973Z,50.35
2022-11-02T11:00:26.704Z,48.26
2022-11-02T11:03:22.698Z,50.40
2022-11-02T11:06:04.267Z,50.26
2022-11-02T11:09:15.368Z,50.27
2022-11-02T11:11:41.912Z,49.79
2022-11-02T11:20:07.612Z,48.90
2022-11-02T11:22:39.396Z,48.49
2022-11-02T11:25:27.656Z,48.67
2022-11-02T11:27:59.355Z,46.51
2022-11-02T11:33:21.019Z,47.32
2022-11-02T11:35:50.639Z,46.81
2022-11-02T11:38:21.191Z,46.72
2022-11-02T11:40:51.205Z,47.38
2022-11-02T11:43:18.214Z,46.62
2022-11-02T11:45:58.208Z,46.39
2022-11-02T11:48:40.023Z,46.23
2022-11-02T11:51:25.480Z,46.51
2022-11-02T11:54:21.438Z,47.50
2022-11-02T11:56:49.992Z,48.20
2022-11-02T11:59:27.992Z,45.82
2022-11-02T12:01:56.712Z,48.48
2022-11-02T12:04:34.476Z,47.18
2022-11-02T12:07:00.992Z,48.08
2022-11-02T12:09:59.204Z,47.79
2022-11-02T12:12:49.136Z,46.21
2022-11-02T12:15:36.931Z,47.57
2022-11-02T12:18:15.723Z,48.08
2022-11-02T12:20:54.508Z,48.47
2022-11-02T12:23:31.864Z,47.41
2022-11-02T12:26:26.178Z,47.33
2022-11-02T12:29:16.503Z,47.79
2022-11-02T12:31:54.526Z,47.78
2022-11-02T12:34:57.784Z,48.51
2022-11-02T12:37:47.250Z,47.71
2022-11-02T12:43:32.433Z,48.61
2022-11-02T12:46:03.371Z,47.81
2022-11-02T12:48:47.145Z,49.10
2022-11-02T12:51:16.763Z,49.05
2022-11-02T12:53:55.679Z,49.50
2022-11-02T12:56:43.634Z,49.14
2022-11-02T12:59:26.999Z,50.04
2022-11-02T13:02:04.107Z,49.04
2022-11-02T13:04:45.933Z,48.77
2022-11-02T13:07:18.717Z,49.27
2022-11-02T13:09:56.693Z,49.00
2022-11-02T13:12:24.638Z,50.22
2022-11-02T13:14:54.585Z,49.24
2022-11-02T13:17:41.934Z,48.95
2022-11-02T13:20:20.583Z,48.57
2022-11-02T13:22:58.046Z,49.15
2022-11-02T13:25:38.957Z,48.93
2022-11-02T13:28:28.790Z,47.78
2022-11-02T13:30:55.469Z,48.78
2022-11-02T13:33:44.452Z,48.29
2022-11-02T13:36:11.849Z,49.47
2022-11-02T13:38:54.968Z,49.36
2022-11-02T13:41:41.215Z,48.51
2022-11-02T13:44:36.721Z,49.11
2022-11-02T13:47:08.726Z,49.36
2022-11-02T13:49:40.209Z,48.74
2022-11-02T13:52:15.810Z,49.04
2022-11-02T13:54:55.746Z,49.41
2022-11-02T13:57:33.440Z,48.96
2022-11-02T14:00:02.332Z,49.08
2022-11-02T14:02:37.125Z,48.92
2022-11-02T14:05:04.182Z,49.57
2022-11-02T14:07:40.754Z,49.84
2022-11-02T14:10:15.327Z,49.25
2022-11-02T14:12:46.114Z,49.72
2022-11-02T14:15:12.645Z,49.91
2022-11-02T14:18:11.100Z,50.08
2022-11-02T14:20:47.048Z,49.22
2022-11-02T14:23:13.703Z,49.72
2022-11-02T14:25:49.196Z,49.68
2022-11-02T14:28:21.518Z,49.86
2022-11-02T14:31:17.363Z,50.05
2022-11-02T14:34:07.197Z,49.93
2022-11-02T14:36:51.172Z,49.89
2022-11-02T14:39:41.825Z,48.94
2022-11-02T14:42:25.930Z,49.26
2022-11-02T14:44:58.084Z,48.99
2022-11-02T14:47:31.300Z,49.62
2022-11-02T14:50:14.081Z,49.56
2022-11-02T14:52:52.497Z,49.79
2022-11-02T14:55:18.976Z,50.07
2022-11-02T14:58:10.910Z,50.11
2022-11-02T15:01:00.383Z,50.16
2022-11-02T15:03:26.873Z,50.67
2022-11-02T15:06:03.596Z,50.47
2022-11-02T15:08:42.308Z,50.18
2022-11-02T15:11:45.902Z,50.69
2022-11-02T15:14:37.485Z,50.41
2022-11-02T15:17:12.957Z,50.47
2022-11-02T15:19:42.242Z,51.06
2022-11-02T15:22:39.729Z,50.92
2022-11-02T15:25:08.941Z,50.75
2022-11-02T15:27:38.159Z,50.91
2022-11-02T15:30:14.247Z,50.70
2022-11-02T15:32:45.564Z,51.03
2022-11-02T15:35:24.071Z,51.58
2022-11-02T15:38:16.441Z,51.90
2022-11-02T15:40:43.417Z,51.66
2022-11-02T15:47:08.278Z,52.52
2022-11-02T15:50:19.464Z,52.78
2022-11-02T15:53:24.460Z,52.94
2022-11-02T15:56:36.499Z,52.92
2022-11-02T15:59:21.185Z,52.77
2022-11-02T16:02:09.083Z,53.10
2022-11-02T16:04:36.816Z,52.88
2022-11-02T16:07:06.177Z,53.25
2022-11-02T16:09:35.809Z,53.05
2022-11-02T16:12:12.275Z,53.76
2022-11-02T16:14:42.683Z,53.23
2022-11-02T16:17:27.055Z,54.26
2022-11-02T16:20:16.952Z,54.49
2022-11-02T16:22:53.255Z,54.32
2022-11-02T16:25:26.956Z,54.14
2022-11-02T16:27:53.593Z,53.91
2022-11-02T16:30:22.414Z,54.16
2022-11-02T16:33:00.199Z,54.76
2022-11-02T16:35:27.533Z,54.27
2022-11-02T16:37:54.056Z,54.41
2022-11-02T16:40:21.556Z,54.51
2022-11-02T16:42:51.752Z,54.79
2022-11-02T16:45:42.301Z,55.51
2022-11-02T16:48:19.649Z,55.46
2022-11-02T16:51:02.616Z,55.70
2022-11-02T16:53:32.189Z,55.28
2022-11-02T16:56:12.873Z,55.20
2022-11-02T16:58:46.355Z,56.26
2022-11-02T17:01:23.627Z,56.46
2022-11-02T17:03:50.464Z,55.51
2022-11-02T17:06:17.988Z,55.53
2022-11-02T17:08:50.628Z,55.80
2022-11-02T17:11:17.889Z,55.82
2022-11-02T17:13:50.483Z,56.32
2022-11-02T17:16:17.284Z,55.87
2022-11-02T17:18:44.054Z,55.83
2022-11-02T17:21:13.578Z,56.51
2022-11-02T17:23:42.858Z,56.31
2022-11-02T17:26:26.400Z,57.06
2022-11-02T17:28:58.359Z,56.92
2022-11-02T17:31:34.470Z,57.32
2022-11-02T17:34:10.351Z,56.74
2022-11-02T17:36:44.946Z,57.51
2022-11-02T17:39:14.638Z,57.07
2022-11-02T17:41:47.770Z,56.79
2022-11-02T17:44:16.605Z,56.94
2022-11-02T17:46:45.740Z,57.00
2022-11-02T17:49:12.908Z,57.01
2022-11-02T17:51:39.725Z,56.89
2022-11-02T17:54:06.600Z,57.17
2022-11-02T17:56:33.105Z,57.13
2022-11-02T17:58:59.570Z,57.27
2022-11-02T18:01:26.765Z,57.46
2022-11-02T18:03:53.436Z,57.48
2022-11-02T18:06:19.965Z,57.64
2022-11-02T18:08:46.621Z,57.58
2022-11-02T18:11:13.120Z,57.71
2022-11-02T18:13:39.609Z,57.67
2022-11-02T18:16:06.366Z,57.77
2022-11-02T18:18:33.095Z,57.84
2022-11-02T18:20:59.626Z,57.82
2022-11-02T18:23:26.275Z,57.95
2022-11-02T18:25:55.306Z,57.92
2022-11-02T18:28:24.883Z,57.93
2022-11-02T18:30:51.532Z,58.00
2022-11-02T18:33:18.055Z,58.15
2022-11-02T18:35:44.554Z,58.17
2022-11-02T18:38:11.275Z,58.22
2022-11-02T18:40:37.859Z,58.33
2022-11-02T18:43:04.805Z,58.28
2022-11-02T18:45:31.785Z,58.28
2022-11-02T18:47:58.422Z,58.30
2022-11-02T18:50:26.335Z,58.39
2022-11-02T18:52:52.826Z,58.35
2022-11-02T18:55:19.359Z,58.57
2022-11-02T18:57:45.821Z,58.63
2022-11-02T19:00:13.609Z,58.57
2022-11-02T19:02:40.175Z,58.54
2022-11-02T19:05:07.118Z,58.68
2022-11-02T19:07:33.681Z,58.68
2022-11-02T19:10:03.600Z,58.79
2022-11-02T19:12:31.045Z,58.79
2022-11-02T19:14:57.895Z,58.86
2022-11-02T19:17:26.349Z,58.94
2022-11-02T19:19:53.103Z,59.03
2022-11-02T19:22:21.938Z,59.23
2022-11-02T19:24:48.966Z,59.17
2022-11-02T19:27:17.232Z,59.37
2022-11-02T19:29:44.046Z,59.12
2022-11-02T19:32:10.676Z,59.09
2022-11-02T19:34:37.390Z,59.26
2022-11-02T19:37:05.538Z,59.30
2022-11-02T19:39:32.115Z,60.40
2022-11-02T19:41:58.659Z,59.24
2022-11-02T19:44:25.377Z,59.23
2022-11-02T19:46:52.290Z,59.57
2022-11-02T19:49:18.916Z,59.44
2022-11-02T19:51:45.683Z,59.60
2022-11-02T19:54:12.275Z,59.58
2022-11-02T19:56:39.005Z,59.71
2022-11-02T19:59:06.197Z,59.79
2022-11-02T20:01:35.587Z,59.93
2022-11-02T20:04:02.675Z,59.76
2022-11-02T20:06:34.730Z,60.66
2022-11-02T20:09:03.062Z,59.84
2022-11-02T20:11:29.808Z,59.95
2022-11-02T20:13:57.867Z,60.04
2022-11-02T20:16:25.259Z,60.15
2022-11-02T20:18:52.707Z,60.25
2022-11-02T20:21:26.853Z,60.63
2022-11-02T20:23:57.902Z,60.62
2022-11-02T20:26:29.872Z,60.90
2022-11-02T20:28:56.644Z,60.31
2022-11-02T20:31:31.363Z,60.51
2022-11-02T20:34:01.928Z,61.19
2022-11-02T20:36:29.217Z,60.33
2022-11-02T20:38:55.760Z,60.28
2022-11-02T20:41:23.321Z,60.35
2022-11-02T20:43:51.482Z,60.65
2022-11-02T20:46:40.078Z,61.76
2022-11-02T20:49:20.723Z,60.26
2022-11-02T20:51:52.103Z,60.77
2022-11-02T20:54:18.719Z,60.16
2022-11-02T20:56:45.228Z,60.21
2022-11-02T20:59:11.696Z,60.33
2022-11-02T21:01:38.460Z,60.52
2022-11-02T21:04:05.132Z,60.46
2022-11-02T21:06:31.666Z,60.69
2022-11-02T21:08:58.179Z,60.78
2022-11-02T21:11:24.909Z,60.69
2022-11-02T21:13:51.662Z,60.63
2022-11-02T21:16:18.340Z,60.49
2022-11-02T21:18:44.851Z,60.79
2022-11-02T21:21:16.971Z,61.47
2022-11-02T21:23:43.778Z,60.61
2022-11-02T21:26:11.933Z,60.67
2022-11-02T21:28:40.210Z,60.76
2022-11-02T21:31:08.132Z,61.49
2022-11-02T21:33:34.864Z,61.28
2022-11-02T21:36:01.813Z,60.34
2022-11-02T21:38:29.314Z,60.41
2022-11-02T21:40:59.902Z,60.93
2022-11-02T21:43:27.150Z,60.58
2022-11-02T21:45:55.897Z,60.58
2022-11-02T21:48:24.472Z,60.77
2022-11-02T21:51:00.937Z,61.26
2022-11-02T21:53:27.683Z,60.60
2022-11-02T21:55:59.460Z,60.81
2022-11-02T21:58:26.384Z,60.39
2022-11-02T22:01:04.855Z,60.91
2022-11-02T22:03:31.400Z,60.41
2022-11-02T22:05:57.936Z,60.32
2022-11-02T22:08:25.660Z,60.51
2022-11-02T22:10:57.288Z,61.19
2022-11-02T22:13:23.830Z,60.47
2022-11-02T22:15:50.338Z,60.61
2022-11-02T22:18:17.034Z,60.40
2022-11-02T22:20:43.520Z,60.63
2022-11-02T22:23:10.169Z,60.62
2022-11-02T22:25:36.696Z,60.58
2022-11-02T22:28:03.302Z,60.58
2022-11-02T22:30:30.013Z,60.60
2022-11-02T22:32:56.538Z,60.93
2022-11-02T22:35:23.125Z,60.86
2022-11-02T22:37:49.703Z,60.76
2022-11-02T22:40:16.280Z,60.82
2022-11-02T22:42:42.785Z,60.90
2022-11-02T22:45:09.654Z,60.97
2022-11-02T22:47:36.294Z,61.10
2022-11-02T22:50:02.967Z,60.93
2022-11-02T22:52:29.711Z,60.89
2022-11-02T22:54:56.342Z,61.07
2022-11-02T22:57:22.795Z,60.91
2022-11-02T22:59:49.293Z,60.97
2022-11-02T23:02:15.982Z,61.12
2022-11-02T23:04:43.062Z,60.89
2022-11-02T23:07:09.603Z,60.88
2022-11-02T23:09:36.231Z,61.08
2022-11-02T23:12:02.878Z,60.93
2022-11-02T23:14:29.419Z,60.98
2022-11-02T23:16:55.962Z,61.04
2022-11-02T23:19:27.272Z,61.13
2022-11-02T23:22:01.500Z,61.67
2022-11-02T23:24:28.044Z,61.02
2022-11-02T23:26:54.847Z,60.83
2022-11-02T23:29:21.462Z,61.06
2022-11-02T23:31:48.040Z,60.89
2022-11-02T23:34:14.479Z,60.77
2022-11-02T23:36:40.921Z,60.91
2022-11-02T23:39:07.421Z,60.79
2022-11-02T23:41:35.787Z,60.80
2022-11-02T23:44:02.489Z,60.62
2022-11-02T23:46:29.122Z,60.83
2022-11-02T23:48:55.622Z,60.89
2022-11-02T23:51:22.065Z,60.86
2022-11-02T23:53:48.829Z,60.85
2022-11-02T23:56:16.602Z,61.03
2022-11-02T23:58:43.655Z,61.12
